createdAt,value
2019-04-07T00:01:51.436Z,30.10
2019-04-07T00:04:21.565Z,33.80
2019-04-07T00:06:51.166Z,34.88
2019-04-07T00:09:20.596Z,35.17
2019-04-07T00:11:49.948Z,31.75
2019-04-07T00:14:19.411Z,39.83
2019-04-07T00:16:49.516Z,30.90
2019-04-07T00:19:19.074Z,36.75
2019-04-07T00:21:48.432Z,35.80
2019-04-07T00:24:18.067Z,33.67
2019-04-07T00:26:47.608Z,36.38
2019-04-07T00:29:17.428Z,38.30
2019-04-07T00:31:47.073Z,37.40
2019-04-07T00:34:16.438Z,36.83
2019-04-07T00:36:45.922Z,37.38
2019-04-07T00:39:15.398Z,40.12
2019-04-07T00:41:45.399Z,35.90
2019-04-07T00:44:15.599Z,37.60
2019-04-07T00:46:45.091Z,35.65
2019-04-07T00:49:14.875Z,43.15
2019-04-07T00:51:44.357Z,42.13
2019-04-07T00:54:13.707Z,38.20
2019-04-07T00:56:43.852Z,38.25
2019-04-07T00:59:13.514Z,42.08
2019-04-07T01:01:42.870Z,41.33
2019-04-07T01:04:12.321Z,43.87
2019-04-07T01:06:42.201Z,44.05
2019-04-07T01:09:11.601Z,45.78
2019-04-07T01:11:40.930Z,38.80
2019-04-07T01:14:10.917Z,40.03
2019-04-07T01:16:40.730Z,39.88
2019-04-07T01:19:10.367Z,38.78
2019-04-07T01:21:40.370Z,38.20
2019-04-07T01:24:09.892Z,42.93
2019-04-07T01:26:39.423Z,46.70
2019-04-07T01:29:09.205Z,45.12
2019-04-07T01:31:38.607Z,44.58
2019-04-07T01:34:10.622Z,46.15
2019-04-07T01:36:40.052Z,43.17
2019-04-07T01:39:11.052Z,48.30
2019-04-07T01:41:57.175Z,49.08
2019-04-07T01:44:43.894Z,42.50
2019-04-07T01:47:15.665Z,44.60
2019-04-07T01:49:45.150Z,46.85
2019-04-07T01:52:21.070Z,38.80
2019-04-07T01:54:53.663Z,41.80
2019-04-07T01:57:33.917Z,39.85
2019-04-07T02:00:24.926Z,38.75
2019-04-07T02:03:04.969Z,45.40
2019-04-07T02:05:43.191Z,39.75
2019-04-07T02:08:20.167Z,39.27
2019-04-07T02:10:57.125Z,42.05
2019-04-07T02:13:31.203Z,41.20
2019-04-07T02:16:05.326Z,49.13
2019-04-07T02:18:36.506Z,43.35
2019-04-07T02:21:23.982Z,45.03
2019-04-07T02:24:11.427Z,39.95
2019-04-07T02:26:58.712Z,43.63
2019-04-07T02:29:30.740Z,47.15
2019-04-07T02:32:06.024Z,42.78
2019-04-07T02:34:44.071Z,42.62
2019-04-07T02:37:15.341Z,48.33
2019-04-07T02:39:51.957Z,39.25
2019-04-07T02:42:39.522Z,42.50
2019-04-07T02:45:17.110Z,47.35
2019-04-07T02:47:58.402Z,47.30
2019-04-07T02:50:45.232Z,44.10
2019-04-07T02:53:25.273Z,43.15
2019-04-07T02:56:12.969Z,45.23
2019-04-07T02:58:47.779Z,46.85
2019-04-07T03:01:35.137Z,43.65
2019-04-07T03:04:09.555Z,49.93
2019-04-07T03:06:56.886Z,48.50
2019-04-07T03:09:38.257Z,47.15
2019-04-07T03:12:09.246Z,47.67
2019-04-07T03:14:53.154Z,50.63
2019-04-07T03:17:27.600Z,53.08
2019-04-07T03:20:08.631Z,53.50
2019-04-07T03:22:48.703Z,51.33
2019-04-07T03:25:20.786Z,42.62
2019-04-07T03:28:10.240Z,46.23
2019-04-07T03:30:42.015Z,49.48
2019-04-07T03:33:15.800Z,47.45
2019-04-07T03:35:48.509Z,53.08
2019-04-07T03:38:16.947Z,47.67
2019-04-07T03:40:48.185Z,53.13
2019-04-07T03:43:19.658Z,50.08
2019-04-07T03:45:53.910Z,52.45
2019-04-07T03:48:32.378Z,49.63
2019-04-07T03:51:06.957Z,47.33
2019-04-07T03:53:39.133Z,48.60
2019-04-07T03:58:57.854Z,48.70
2019-04-07T04:01:35.622Z,52.20
2019-04-07T04:04:07.433Z,53.83
2019-04-07T04:06:56.901Z,50.85
2019-04-07T04:09:41.271Z,53.35
2019-04-07T04:12:10.729Z,50.90
2019-04-07T04:14:45.371Z,44.95
2019-04-07T04:17:14.962Z,44.67
2019-04-07T04:19:44.287Z,42.70
2019-04-07T04:22:14.173Z,47.03
2019-04-07T04:24:43.896Z,50.05
2019-04-07T04:27:13.358Z,52.00
2019-04-07T04:29:43.448Z,55.52
2019-04-07T04:32:13.421Z,55.73
2019-04-07T04:34:43.206Z,57.33
2019-04-07T04:37:12.770Z,53.73
2019-04-07T04:39:42.284Z,52.35
2019-04-07T04:42:11.629Z,61.05
2019-04-07T04:44:40.971Z,52.67
2019-04-07T04:47:10.418Z,51.85
2019-04-07T04:49:40.358Z,51.53
2019-04-07T04:52:11.544Z,52.67
2019-04-07T04:54:42.051Z,52.62
2019-04-07T04:57:11.485Z,49.80
2019-04-07T04:59:40.900Z,57.48
2019-04-07T05:02:10.778Z,55.43
2019-04-07T05:04:40.491Z,51.13
2019-04-07T05:07:10.182Z,55.95
2019-04-07T05:09:46.106Z,59.03
2019-04-07T05:12:10.744Z,52.35
2019-04-07T05:14:40.119Z,52.08
2019-04-07T05:17:10.073Z,61.05
2019-04-07T05:19:42.619Z,50.95
2019-04-07T05:22:10.603Z,58.28
2019-04-07T05:24:40.125Z,59.20
2019-04-07T05:27:09.724Z,71.87
2019-04-07T05:29:39.261Z,62.08
2019-04-07T05:32:08.851Z,55.63
2019-04-07T05:34:39.097Z,75.35
2019-04-07T05:37:08.742Z,67.25
2019-04-07T05:39:38.408Z,65.00
2019-04-07T05:42:08.042Z,75.22
2019-04-07T05:44:37.403Z,66.57
2019-04-07T05:47:07.125Z,58.60
2019-04-07T05:49:36.484Z,55.15
2019-04-07T05:52:06.600Z,59.98
2019-04-07T05:54:36.343Z,56.65
2019-04-07T05:57:05.744Z,49.98
2019-04-07T05:59:35.430Z,52.48
2019-04-07T06:02:05.103Z,53.83
2019-04-07T06:04:34.894Z,58.38
2019-04-07T06:07:04.603Z,49.42
2019-04-07T06:09:34.032Z,58.17
2019-04-07T06:12:08.498Z,54.88
2019-04-07T06:14:34.606Z,55.73
2019-04-07T06:17:04.819Z,52.27
2019-04-07T06:19:37.475Z,51.85
2019-04-07T06:22:07.499Z,53.20
2019-04-07T06:24:36.509Z,55.88
2019-04-07T06:27:05.950Z,51.10
2019-04-07T06:29:35.535Z,58.65
2019-04-07T06:32:05.590Z,50.60
2019-04-07T06:34:39.773Z,50.63
2019-04-07T06:37:07.680Z,47.98
2019-04-07T06:39:37.388Z,47.23
2019-04-07T06:42:07.513Z,49.55
2019-04-07T06:44:37.729Z,43.63
2019-04-07T06:47:13.180Z,49.80
2019-04-07T06:50:05.542Z,51.92
2019-04-07T06:52:40.760Z,48.23
2019-04-07T06:55:17.885Z,47.80
2019-04-07T06:57:52.995Z,53.70
2019-04-07T07:00:40.829Z,48.55
2019-04-07T07:03:20.670Z,49.98
2019-04-07T07:06:00.195Z,52.15
2019-04-07T07:08:46.077Z,51.33
2019-04-07T07:11:32.320Z,47.20
2019-04-07T07:14:30.017Z,49.85
2019-04-07T07:16:47.652Z,48.25
2019-04-07T07:19:33.760Z,46.35
2019-04-07T07:22:06.165Z,51.75
2019-04-07T07:24:33.959Z,44.67
2019-04-07T07:27:07.273Z,50.43
2019-04-07T07:29:35.152Z,46.63
2019-04-07T07:32:04.936Z,44.03
2019-04-07T07:34:34.323Z,48.85
2019-04-07T07:37:04.089Z,43.83
2019-04-07T07:39:34.087Z,46.92
2019-04-07T07:42:04.011Z,42.73
2019-04-07T07:44:35.882Z,45.30
2019-04-07T07:47:04.485Z,40.65
2019-04-07T07:49:36.082Z,40.35
2019-04-07T07:52:04.998Z,42.50
2019-04-07T07:54:35.132Z,47.62
2019-04-07T07:57:04.948Z,45.20
2019-04-07T07:59:37.990Z,46.13
2019-04-07T08:02:05.436Z,45.60
2019-04-07T08:04:35.585Z,43.08
2019-04-07T08:07:05.495Z,47.27
2019-04-07T08:09:34.890Z,45.15
2019-04-07T08:12:04.231Z,42.83
2019-04-07T08:14:33.585Z,40.67
2019-04-07T08:17:03.952Z,39.18
2019-04-07T08:19:33.518Z,37.60
2019-04-07T08:22:03.084Z,36.90
2019-04-07T08:24:32.715Z,33.98
2019-04-07T08:27:02.243Z,35.28
2019-04-07T08:29:32.398Z,33.83
2019-04-07T08:32:02.105Z,37.90
2019-04-07T08:34:32.936Z,33.65
2019-04-07T08:37:03.559Z,33.18
2019-04-07T08:39:35.476Z,33.92
2019-04-07T08:42:09.585Z,38.00
2019-04-07T08:44:35.457Z,35.80
2019-04-07T08:47:04.931Z,34.95
2019-04-07T08:49:35.412Z,32.58
2019-04-07T08:52:09.677Z,31.48
2019-04-07T08:54:36.864Z,33.67
2019-04-07T08:57:07.004Z,36.15
2019-04-07T08:59:39.889Z,35.85
2019-04-07T09:02:07.676Z,32.93
2019-04-07T09:04:37.068Z,32.63
2019-04-07T09:07:06.421Z,33.18
2019-04-07T09:09:38.025Z,29.10
2019-04-07T09:12:07.134Z,33.50
2019-04-07T09:14:38.755Z,31.48
2019-04-07T09:17:29.991Z,32.43
2019-04-07T09:19:49.647Z,27.37
2019-04-07T09:22:36.809Z,32.70
2019-04-07T09:25:25.071Z,30.37
2019-04-07T09:27:56.088Z,32.75
2019-04-07T09:30:27.314Z,33.20
2019-04-07T09:32:58.821Z,30.72
2019-04-07T09:35:36.247Z,34.13
2019-04-07T09:38:24.894Z,32.93
2019-04-07T09:41:11.157Z,33.78
2019-04-07T09:43:45.049Z,30.60
2019-04-07T09:46:31.131Z,29.82
2019-04-07T09:49:21.216Z,31.20
2019-04-07T09:51:50.652Z,28.45
2019-04-07T09:54:37.342Z,30.07
2019-04-07T09:57:12.222Z,30.57
2019-04-07T09:59:54.214Z,35.92
2019-04-07T10:02:31.820Z,37.05
2019-04-07T10:05:06.948Z,34.03
2019-04-07T10:07:51.819Z,36.77
2019-04-07T10:10:23.695Z,33.40
2019-04-07T10:15:47.558Z,35.68
2019-04-07T10:18:34.891Z,35.25
2019-04-07T10:21:09.948Z,31.93
2019-04-07T10:23:50.901Z,33.33
2019-04-07T10:26:27.900Z,30.72
2019-04-07T10:28:59.507Z,34.03
2019-04-07T10:31:33.727Z,28.80
2019-04-07T10:34:16.542Z,29.20
2019-04-07T10:37:04.865Z,34.58
2019-04-07T10:39:36.009Z,28.95
2019-04-07T10:42:23.601Z,35.10
2019-04-07T10:45:07.267Z,31.23
2019-04-07T10:47:41.213Z,32.25
2019-04-07T10:50:12.503Z,31.80
2019-04-07T10:52:46.956Z,32.40
2019-04-07T10:55:34.148Z,30.15
2019-04-07T10:58:05.451Z,30.05
2019-04-07T11:00:48.985Z,34.65
2019-04-07T11:03:28.373Z,33.92
2019-04-07T11:06:07.227Z,29.92
2019-04-07T11:08:38.296Z,34.75
2019-04-07T11:11:07.897Z,32.87
2019-04-07T11:13:55.465Z,31.48
2019-04-07T11:16:35.597Z,33.45
2019-04-07T11:19:04.927Z,34.05
2019-04-07T11:21:41.658Z,30.10
2019-04-07T11:24:16.574Z,28.65
2019-04-07T11:26:51.755Z,28.60
2019-04-07T11:29:20.899Z,28.98
2019-04-07T11:31:58.350Z,30.12
2019-04-07T11:34:28.178Z,29.07
2019-04-07T11:36:59.500Z,33.15
2019-04-07T11:39:39.278Z,27.77
2019-04-07T11:42:25.160Z,30.35
2019-04-07T11:44:56.164Z,27.50
2019-04-07T11:47:25.348Z,30.77
2019-04-07T11:50:10.958Z,32.93
2019-04-07T11:52:48.305Z,28.47
2019-04-07T11:55:35.289Z,28.73
2019-04-07T11:58:13.500Z,31.27
2019-04-07T12:00:41.657Z,32.08
2019-04-07T12:03:28.890Z,33.30
2019-04-07T12:06:17.787Z,30.27
2019-04-07T12:08:55.699Z,31.95
2019-04-07T12:11:24.903Z,33.35
2019-04-07T12:14:01.669Z,27.65
2019-04-07T12:16:30.911Z,27.90
2019-04-07T12:19:01.969Z,27.93
2019-04-07T12:21:49.048Z,28.17
2019-04-07T12:24:32.549Z,29.02
2019-04-07T12:27:21.227Z,31.62
2019-04-07T12:29:51.600Z,29.07
2019-04-07T12:32:22.582Z,26.17
2019-04-07T12:35:01.138Z,26.90
2019-04-07T12:37:48.754Z,28.12
2019-04-07T12:40:23.235Z,29.57
2019-04-07T12:42:55.046Z,28.92
2019-04-07T12:45:28.794Z,27.23
2019-04-07T12:48:04.623Z,25.37
2019-04-07T12:50:54.137Z,26.85
2019-04-07T12:53:40.110Z,26.15
2019-04-07T12:56:09.680Z,26.40
2019-04-07T12:58:57.121Z,27.48
2019-04-07T13:01:47.262Z,26.70
2019-04-07T13:04:15.465Z,27.05
2019-04-07T13:06:46.931Z,25.43
2019-04-07T13:09:18.094Z,23.10
2019-04-07T13:11:52.749Z,27.55
2019-04-07T13:14:27.110Z,26.42
2019-04-07T13:17:17.013Z,25.77
2019-04-07T13:19:51.425Z,30.05
2019-04-07T13:22:26.214Z,28.90
2019-04-07T13:25:14.269Z,29.25
2019-04-07T13:27:45.523Z,26.25
2019-04-07T13:30:14.637Z,24.20
2019-04-07T13:32:50.457Z,25.35
2019-04-07T13:35:20.953Z,23.15
2019-04-07T13:38:00.112Z,25.62
2019-04-07T13:40:34.522Z,25.75
2019-04-07T13:43:13.410Z,25.00
2019-04-07T13:45:48.108Z,27.00
2019-04-07T13:48:25.880Z,26.35
2019-04-07T13:51:00.940Z,32.03
2019-04-07T13:53:47.837Z,26.73
2019-04-07T13:56:22.792Z,22.52
2019-04-07T13:59:11.259Z,21.42
2019-04-07T14:01:48.087Z,25.02
2019-04-07T14:04:18.237Z,26.35
2019-04-07T14:06:55.533Z,29.80
2019-04-07T14:09:32.526Z,28.12
2019-04-07T14:12:09.076Z,24.98
2019-04-07T14:14:37.224Z,23.57
2019-04-07T14:17:24.822Z,25.55
2019-04-07T14:20:03.821Z,27.00
2019-04-07T14:22:50.890Z,24.80
2019-04-07T14:25:31.028Z,29.12
2019-04-07T14:28:20.106Z,27.70
2019-04-07T14:31:07.600Z,25.45
2019-04-07T14:33:55.601Z,25.10
2019-04-07T14:36:43.820Z,28.42
2019-04-07T14:39:31.479Z,23.15
2019-04-07T14:42:04.536Z,24.85
2019-04-07T14:44:41.211Z,28.80
2019-04-07T14:47:18.631Z,25.25
2019-04-07T14:49:57.261Z,29.10
2019-04-07T14:52:33.749Z,27.90
2019-04-07T14:55:20.730Z,28.55
2019-04-07T14:58:00.201Z,26.75
2019-04-07T15:00:39.894Z,28.17
2019-04-07T15:03:09.444Z,25.75
2019-04-07T15:05:40.734Z,27.60
2019-04-07T15:08:15.230Z,25.32
2019-04-07T15:10:52.772Z,28.00
2019-04-07T15:13:28.178Z,29.95
2019-04-07T15:15:59.095Z,27.87
2019-04-07T15:18:28.643Z,31.87
2019-04-07T15:20:58.153Z,28.38
2019-04-07T15:23:29.428Z,33.38
2019-04-07T15:25:59.050Z,46.58
2019-04-07T15:28:30.683Z,44.25
2019-04-07T15:30:59.577Z,45.75
2019-04-07T15:33:31.430Z,40.12
2019-04-07T15:36:00.053Z,39.15
2019-04-07T15:38:29.095Z,37.55
2019-04-07T15:40:59.642Z,42.73
2019-04-07T15:43:33.291Z,33.20
2019-04-07T15:46:01.285Z,38.25
2019-04-07T15:48:31.669Z,37.17
2019-04-07T15:51:04.636Z,32.58
2019-04-07T15:53:32.917Z,31.87
2019-04-07T15:56:06.381Z,33.13
2019-04-07T15:58:33.858Z,44.18
2019-04-07T16:01:06.762Z,34.45
2019-04-07T16:03:35.625Z,31.17
2019-04-07T16:06:05.740Z,30.08
2019-04-07T16:08:35.322Z,27.93
2019-04-07T16:11:05.021Z,30.23
2019-04-07T16:13:34.484Z,33.80
2019-04-07T16:16:03.944Z,31.55
2019-04-07T16:18:37.038Z,33.15
2019-04-07T16:21:07.147Z,30.57
2019-04-07T16:23:36.324Z,30.72
2019-04-07T16:26:06.638Z,32.13
2019-04-07T16:28:36.145Z,30.02
2019-04-07T16:31:06.556Z,31.93
2019-04-07T16:33:37.197Z,28.85
2019-04-07T16:36:06.702Z,32.83
2019-04-07T16:38:36.526Z,32.75
2019-04-07T16:41:06.583Z,29.32
2019-04-07T16:43:37.754Z,35.28
2019-04-07T16:46:07.737Z,32.58
2019-04-07T16:48:40.061Z,32.55
2019-04-07T16:51:09.176Z,34.48
2019-04-07T16:53:41.687Z,41.55
2019-04-07T16:56:09.736Z,37.13
2019-04-07T16:58:40.130Z,43.38
2019-04-07T17:01:09.595Z,40.45
2019-04-07T17:03:39.808Z,44.75
2019-04-07T17:06:12.004Z,44.18
2019-04-07T17:08:40.293Z,40.58
2019-04-07T17:11:09.775Z,41.13
2019-04-07T17:13:41.758Z,37.25
2019-04-07T17:16:11.938Z,41.05
2019-04-07T17:18:43.130Z,41.00
2019-04-07T17:21:18.839Z,40.23
2019-04-07T17:23:48.312Z,41.83
2019-04-07T17:26:18.133Z,37.95
2019-04-07T17:28:49.557Z,36.85
2019-04-07T17:31:18.845Z,37.40
2019-04-07T17:33:48.920Z,36.80
2019-04-07T17:36:21.196Z,39.67
2019-04-07T17:38:51.944Z,40.17
2019-04-07T17:41:21.512Z,40.43
2019-04-07T17:43:59.042Z,41.08
2019-04-07T17:46:32.568Z,37.63
2019-04-07T17:49:04.450Z,38.67
2019-04-07T17:51:51.245Z,37.08
2019-04-07T17:54:39.631Z,37.05
2019-04-07T17:57:13.372Z,41.20
2019-04-07T17:59:48.463Z,40.45
2019-04-07T18:02:36.478Z,44.05
2019-04-07T18:05:26.479Z,39.78
2019-04-07T18:08:11.853Z,48.17
2019-04-07T18:10:57.864Z,58.25
2019-04-07T18:13:33.135Z,53.68
2019-04-07T18:16:01.715Z,40.20
2019-04-07T18:18:49.789Z,42.80
2019-04-07T18:21:24.019Z,48.38
2019-04-07T18:24:03.678Z,46.63
2019-04-07T18:26:35.455Z,51.88
2019-04-07T18:29:28.774Z,53.80
2019-04-07T18:32:01.970Z,54.98
2019-04-07T18:34:49.631Z,59.18
2019-04-07T18:37:40.042Z,58.10
2019-04-07T18:40:08.862Z,47.17
2019-04-07T18:42:44.429Z,37.38
2019-04-07T18:45:30.798Z,38.25
2019-04-07T18:48:18.150Z,37.80
2019-04-07T18:50:55.213Z,46.80
2019-04-07T18:53:42.803Z,44.38
2019-04-07T18:56:17.541Z,51.77
2019-04-07T18:58:52.320Z,44.67
2019-04-07T19:01:41.404Z,56.28
2019-04-07T19:04:17.315Z,74.67
2019-04-07T19:06:49.666Z,64.32
2019-04-07T19:09:36.757Z,70.78
2019-04-07T19:12:18.669Z,70.90
2019-04-07T19:14:52.385Z,60.75
2019-04-07T19:17:26.058Z,63.85
2019-04-07T19:20:06.272Z,64.80
2019-04-07T19:22:54.044Z,79.37
2019-04-07T19:25:29.145Z,72.45
2019-04-07T19:28:03.484Z,65.75
2019-04-07T19:30:43.622Z,58.87
2019-04-07T19:33:14.871Z,51.88
2019-04-07T19:35:55.127Z,53.90
2019-04-07T19:38:30.637Z,64.17
2019-04-07T19:41:04.755Z,48.92
2019-04-07T19:43:35.945Z,46.75
2019-04-07T19:46:15.932Z,54.88
2019-04-07T19:48:47.048Z,56.10
2019-04-07T19:51:30.611Z,55.00
2019-04-07T19:54:19.030Z,54.42
2019-04-07T19:56:50.521Z,51.30
2019-04-07T19:59:30.313Z,50.40
2019-04-07T20:02:04.029Z,53.65
2019-04-07T20:04:37.347Z,55.55
2019-04-07T20:07:14.170Z,52.23
2019-04-07T20:09:48.761Z,52.15
2019-04-07T20:12:20.642Z,53.90
2019-04-07T20:17:25.969Z,59.08
2019-04-07T20:20:09.293Z,56.98
2019-04-07T20:22:39.078Z,54.88
2019-04-07T20:25:17.103Z,60.35
2019-04-07T20:27:46.987Z,59.90
2019-04-07T20:30:17.504Z,55.98
2019-04-07T20:33:04.781Z,59.98
2019-04-07T20:35:52.181Z,57.90
2019-04-07T20:38:27.652Z,65.15
2019-04-07T20:41:14.508Z,61.68
2019-04-07T20:43:47.359Z,56.25
2019-04-07T20:46:34.490Z,65.65
2019-04-07T20:49:15.839Z,55.33
2019-04-07T20:51:54.463Z,58.75
2019-04-07T20:54:23.783Z,55.03
2019-04-07T20:56:52.904Z,64.97
2019-04-07T20:59:37.139Z,61.25
2019-04-07T21:02:11.233Z,60.10
2019-04-07T21:04:53.067Z,58.28
2019-04-07T21:07:21.580Z,62.17
2019-04-07T21:09:58.122Z,67.50
2019-04-07T21:12:38.977Z,60.10
2019-04-07T21:15:30.028Z,59.58
2019-04-07T21:17:58.261Z,59.27
2019-04-07T21:20:46.401Z,57.15
2019-04-07T21:23:20.743Z,63.80
2019-04-07T21:26:01.494Z,64.50
2019-04-07T21:28:37.761Z,63.02
2019-04-07T21:31:06.445Z,61.70
2019-04-07T21:33:41.273Z,67.10
2019-04-07T21:36:28.696Z,73.60
2019-04-07T21:39:02.384Z,73.47
2019-04-07T21:41:33.393Z,74.72
2019-04-07T21:44:20.849Z,83.58
2019-04-07T21:46:54.796Z,87.02
2019-04-07T21:49:34.745Z,74.12
2019-04-07T21:52:01.136Z,78.28
2019-04-07T21:54:40.938Z,78.00
2019-04-07T21:57:26.847Z,85.45
2019-04-07T22:00:11.211Z,83.80
2019-04-07T22:02:58.243Z,86.47
2019-04-07T22:05:29.286Z,79.67
2019-04-07T22:08:14.435Z,84.42
2019-04-07T22:10:40.275Z,84.70
2019-04-07T22:13:09.989Z,85.10
2019-04-07T22:15:47.346Z,87.15
2019-04-07T22:18:11.153Z,72.65
2019-04-07T22:20:40.693Z,88.67
2019-04-07T22:23:10.150Z,67.22
2019-04-07T22:25:48.319Z,73.37
2019-04-07T22:28:18.490Z,65.03
2019-04-07T22:30:50.872Z,64.65
2019-04-07T22:33:25.127Z,65.90
2019-04-07T22:35:51.536Z,60.30
2019-04-07T22:38:23.334Z,69.05
2019-04-07T22:40:52.159Z,59.25
2019-04-07T22:43:21.724Z,59.55
2019-04-07T22:45:58.857Z,57.03
2019-04-07T22:48:24.597Z,52.78
2019-04-07T22:50:53.875Z,57.10
2019-04-07T22:53:27.070Z,59.63
2019-04-07T22:55:54.790Z,48.85
2019-04-07T22:58:24.325Z,58.55
2019-04-07T23:00:54.297Z,52.48
2019-04-07T23:03:23.993Z,48.05
2019-04-07T23:05:53.434Z,53.95
2019-04-07T23:08:22.858Z,56.58
2019-04-07T23:10:52.194Z,53.30
2019-04-07T23:13:21.755Z,47.98
2019-04-07T23:15:51.085Z,44.53
2019-04-07T23:18:20.899Z,47.13
2019-04-07T23:20:51.420Z,46.20
2019-04-07T23:23:21.795Z,46.92
2019-04-07T23:25:53.552Z,41.85
2019-04-07T23:28:23.150Z,41.48
2019-04-07T23:30:52.591Z,40.33
2019-04-07T23:33:22.323Z,39.95
2019-04-07T23:35:51.636Z,36.33
2019-04-07T23:38:21.864Z,37.08
2019-04-07T23:40:51.567Z,36.45
2019-04-07T23:43:21.622Z,34.58
2019-04-07T23:45:51.709Z,32.17
2019-04-07T23:48:22.179Z,33.60
2019-04-07T23:50:52.022Z,31.37
2019-04-07T23:54:11.307Z,34.00
2019-04-07T23:56:42.102Z,31.20
2019-04-07T23:59:11.499Z,32.08
